Home > Products > Valid Products > TAF

000
FTUS43 KDVN 290800 AAC
TAFCID
TAF AMD
KCID 290802Z 2908/3006 33012KT 5SM BR BKN025
     FM290900 32014G21KT 6SM BR OVC015
      TEMPO 2909/2913 5SM BR OVC008
     FM291500 32021G31KT 6SM BR OVC015
     FM300000 32015KT P6SM BKN030=



000
FTUS43 KDVN 290800 AAA
TAFDBQ
TAF AMD
KDBQ 290800Z 2908/3006 09006KT 5SM BR BKN025
     FM290900 36012KT 4SM BR OVC012
      TEMPO 2909/2911 OVC008
     FM291100 32015G23KT 3SM BR OVC008
     FM291500 32018G27KT 6SM BR OVC015
     FM300000 33015KT P6SM BKN030=



000
FTUS43 KDVN 290800 CCA
TAFDBQ
TAF COR
KDBQ 290800Z 2908/3006 35009KT 5SM BR BKN025
     FM290900 34014KT 4SM BR OVC012
      TEMPO 2909/2911 OVC008
     FM291100 32015G23KT 3SM BR OVC008
     FM291500 32018G27KT 6SM BR OVC015
     FM300000 33015KT P6SM BKN030=



000
FTUS43 KDVN 290700 AAA
TAFBRL
TAF AMD
KBRL 290759Z 2908/3006 30012G20KT P6SM SCT030 SCT150
     FM290900 30015G28KT 6SM BR OVC015
      TEMPO 2909/2912 4SM BR OVC008
     FM291200 32015G22KT 4SM BR OVC008
     FM291500 32018G26KT 6SM BR OVC015
     FM300000 32012KT P6SM BKN030=



000
FTUS43 KDVN 290700 AAA
TAFMLI
TAF AMD
KMLI 290757Z 2908/3006 30005KT P6SM SCT150
     FM290900 29008KT 6SM BR OVC025
      TEMPO 2909/2912 4SM -DZ BR OVC012
     FM291200 32015G22KT 4SM BR OVC018
     FM291500 32019G29KT P6SM OVC025
     FM300000 32013KT P6SM SCT030=



000
FTUS43 KDVN 290700 AAB
TAFCID
TAF AMD
KCID 290701Z 2907/3006 33012KT 5SM BR BKN035
     FM290800 32014G21KT 4SM BR OVC015
      TEMPO 2908/2911 2SM -DZ OVC008
     FM291100 32020G28KT 3SM BR OVC008
     FM291500 32021G31KT 6SM BR OVC015
     FM300000 32015KT P6SM BKN030=



000
FTUS43 KDVN 290700 AAA
TAFCID
TAF AMD
KCID 290700Z 2907/3006 33010KT 5SM BR BKN035
     FM290800 32014G21KT 4SM BR OVC015
      TEMPO 2908/2911 3SM -DZ OVC008
     FM291100 32020G28KT 3SM BR OVC008
     FM291500 32021G31KT 6SM BR OVC015
     FM300000 32015KT P6SM BKN030=



000
FTUS43 KDVN 290500 RRA
TAFBRL
TAF
KBRL 290548Z 2906/3006 17012KT P6SM SCT150
     FM290830 30013KT 6SM BR OVC015
      TEMPO 2909/2912 4SM BR OVC008
     FM291200 32015G22KT 4SM BR OVC008
     FM291500 32018G26KT 6SM BR OVC015
     FM300000 32012KT P6SM BKN030=



000
FTUS43 KDVN 290500 RRA
TAFCID
TAF
KCID 290548Z 2906/3006 01006KT 5SM BR BKN025
     FM290730 32014G21KT 4SM BR OVC012
      TEMPO 2908/2911 2SM -FZDZ OVC008
     FM291100 32020G28KT 3SM BR OVC008
     FM291500 32021G31KT 6SM BR OVC015
     FM300000 32015KT P6SM BKN030=



000
FTUS43 KDVN 290500 RRA
TAFMLI
TAF
KMLI 290548Z 2906/3006 16008KT P6SM SCT150
     FM290830 29008KT 6SM BR OVC015
      TEMPO 2909/2912 4SM -DZ BR OVC008
     FM291200 32015G22KT 4SM BR OVC008
     FM291500 32017G25KT 6SM BR OVC015
     FM300000 32013KT P6SM BKN030=



000
FTUS43 KDVN 290500 RRA
TAFDBQ
TAF
KDBQ 290548Z 2906/3006 09006KT 5SM BR BKN025
     FM290730 36012KT 4SM BR OVC012
      TEMPO 2908/2911 2SM -FZDZ OVC008
     FM291100 32015G23KT 3SM BR OVC008
     FM291500 32018G27KT 6SM BR OVC015
     FM300000 33015KT P6SM BKN030=



000
FTUS43 KDVN 290500 AAB
TAFDBQ
TAF AMD
KDBQ 290501Z 2905/2924 13006KT 6SM BR SCT040
     FM290600 07007KT 4SM BR OVC015
     FM290800 33013G22KT 4SM BR OVC009
     FM291400 32021G31KT P6SM OVC012=



000
FTUS43 KDVN 290200 AAA
TAFMLI
TAF AMD
KMLI 290201Z 2902/2924 13010KT P6SM SCT120
      TEMPO 2902/2903 -SHRA BKN080
     FM290800 17012KT 5SM BR OVC015
     FM291000 30015G22KT 5SM BR OVC010
     FM291400 32020G28KT P6SM OVC020=



000
FTUS43 KDVN 290100 AAA
TAFDBQ
TAF AMD
KDBQ 290106Z 2901/2924 16010KT P6SM SCT020
      TEMPO 2901/2905 6SM BR BKN014
     FM290500 14010KT 4SM BR OVC015
     FM290800 33013G22KT 4SM BR OVC009
     FM291400 32021G31KT P6SM OVC012=



000
FTUS43 KDVN 290100 AAA
TAFDBQ
TAF AMD
KDBQ 290106Z 2901/2924 16010KT P6SM SCT020
      TEMPO 2901/2905 6SM BR BKN014
     FM290500 14010KT 4SM BR OVC015
     FM290800 33013G22KT 4SM BR OVC009
     FM291400 32021G31KT P6SM OVC012=



000
FTUS43 KDVN 282300
TAFCID
TAF
KCID 282328Z 2900/2924 13013KT 6SM BR BKN150
     FM290600 16010KT 4SM BR OVC015
     FM290800 32018G25KT 4SM BR OVC009
     FM291400 32023G33KT P6SM OVC015=



000
FTUS43 KDVN 282300
TAFBRL
TAF
KBRL 282328Z 2900/2924 15012KT P6SM BKN200
     FM290600 20014KT P6SM BKN120
     FM290800 28015G22KT 6SM BR OVC025
     FM291000 32016G25KT 5SM BR OVC015
     FM291400 32020G28KT P6SM OVC020=



000
FTUS43 KDVN 282300
TAFDBQ
TAF
KDBQ 282328Z 2900/2924 15015G22KT P6SM BKN150
     FM290100 14012KT 6SM BR BKN150
     FM290600 14010KT 4SM BR OVC015
     FM290900 33013G22KT 4SM BR OVC009
     FM291400 32021G31KT P6SM OVC012=



000
FTUS43 KDVN 282300
TAFMLI
TAF
KMLI 282328Z 2900/2924 14012KT P6SM BKN200
     FM290800 17012KT 5SM BR OVC015
     FM291000 30015G22KT 5SM BR OVC010
     FM291400 32020G28KT P6SM OVC020=



000
FTUS43 KDVN 282300 AAB
TAFCID
TAF AMD
KCID 282301Z 2823/2918 13013KT 6SM BR BKN150
     FM290600 16010KT 4SM BR OVC015
     FM290800 32018G25KT 4SM BR OVC009
     FM291400 32023G33KT P6SM OVC015=



000
FTUS43 KDVN 281900 AAA
TAFCID
TAF AMD
KCID 281929Z 2819/2918 15015G21KT P6SM BKN018
      TEMPO 2819/2823 SCT018
     FM290100 14013KT 6SM BR SCT020 BKN100
     FM290600 18009KT 4SM BR OVC012
     FM290800 32018G24KT 4SM BR OVC010
     FM291400 32022G30KT P6SM OVC020=



000
FTUS43 KDVN 281700
TAFBRL
TAF
KBRL 281740Z 2818/2918 16016G25KT P6SM BKN250
     FM290300 15013KT 6SM BR BKN035
     FM290900 30014G20KT P6SM SCT010 OVC015
     FM291400 32020G28KT P6SM OVC020=



000
FTUS43 KDVN 281700
TAFMLI
TAF
KMLI 281740Z 2818/2918 15016G25KT P6SM BKN250
     FM290100 17012KT 6SM BR SCT015 BKN100
     FM291000 30014G20KT 5SM BR OVC025
     FM291400 32020G28KT P6SM OVC020=



000
FTUS43 KDVN 281700
TAFDBQ
TAF
KDBQ 281740Z 2818/2918 15018G25KT P6SM BKN250
     FM290100 17012KT 5SM BR SCT020 OVC100
     FM290800 32015G22KT 3SM BR OVC010
     FM291400 32022G30KT P6SM OVC020=



000
FTUS43 KDVN 281700
TAFCID
TAF
KCID 281740Z 2818/2918 13016G25KT P6SM BKN250
     FM290100 14013KT 6SM BR SCT020 BKN100
     FM290600 18009KT 4SM BR OVC012
     FM290800 32018G24KT 4SM BR OVC010
     FM291400 32022G30KT P6SM OVC020=



000
FTUS43 KDVN 281300 AAA
TAFCID
TAF AMD
KCID 281349Z 2814/2912 14012G20KT 2SM BR OVC005
     FM281430 14014G21KT 6SM BR SCT005 SCT010
     FM290100 13013KT 6SM BR SCT020 BKN100
     FM290600 18009KT 4SM BR OVC012
     FM290900 32018G24KT 4SM BR OVC010=



000
FTUS43 KDVN 281200 AAA
TAFMLI
TAF AMD
KMLI 281201Z 2812/2912 16010KT P6SM SCT010 SCT015
     FM281600 16015G23KT P6SM SCT030 SCT100
     FM290100 17012KT 6SM BR SCT015 BKN100
     FM290800 17012KT 6SM BR OVC030=



000
FTUS43 KDVN 281100
TAFCID
TAF
KCID 281122Z 2812/2912 14011KT 2SM BR OVC003
     FM281400 14014G21KT 6SM BR OVC010
     FM281600 14015G23KT P6SM SCT015 BKN050
     FM290100 13013KT 6SM BR SCT020 BKN100
     FM290600 18009KT 4SM BR OVC012
     FM290900 32018G24KT 4SM BR OVC010=



000
FTUS43 KDVN 281100
TAFBRL
TAF
KBRL 281122Z 2812/2912 14009KT 6SM BR SCT012
     FM281400 15013G20KT P6SM SCT006
     FM281800 16017G25KT P6SM SCT050
     FM290300 15013KT 6SM BR BKN035
     FM290900 29014G20KT P6SM SCT010 OVC015=



000
FTUS43 KDVN 281100
TAFDBQ
TAF
KDBQ 281122Z 2812/2912 17012KT 3SM BR OVC005
     FM281400 17012KT 4SM BR OVC006
     FM281600 17014G21KT P6SM OVC015
     FM281800 16017G25KT P6SM BKN030
     FM290100 17012KT 5SM BR SCT020 OVC100
     FM290800 32015G22KT 3SM BR OVC010=



000
FTUS43 KDVN 281100
TAFMLI
TAF
KMLI 281122Z 2812/2912 14007KT P6SM OVC010
     FM281230 16012KT P6SM SCT010 SCT015
     FM281600 16015G23KT P6SM SCT030 SCT100
     FM290100 17012KT 6SM BR SCT015 BKN100
     FM290800 17012KT 6SM BR OVC030=



000
FTUS43 KDVN 281100 AAC
TAFCID
TAF AMD
KCID 281100Z 2811/2906 14011KT 2SM BR OVC003
     FM281400 14014G21KT 6SM BR OVC010
     FM281500 14015G23KT P6SM SCT015 BKN035
     FM290100 13012KT 5SM BR OVC018=



000
FTUS43 KDVN 281000 AAB
TAFBRL
TAF AMD
KBRL 281024Z 2810/2906 17009KT 5SM BR OVC006
     FM281100 15013G20KT P6SM SCT006
     FM281800 16017G25KT P6SM SCT050
     FM290100 15013KT 6SM BR OVC018=



000
FTUS43 KDVN 280900 AAB
TAFCID
TAF AMD
KCID 280958Z 2810/2906 13009KT 3SM BR OVC005
      TEMPO 2810/2814 5SM BR OVC008
     FM281400 14014G21KT 6SM BR OVC015
     FM281800 14015G23KT P6SM BKN030
     FM290100 13012KT 5SM BR OVC018=



000
FTUS43 KDVN 280900 AAB
TAFCID
TAF AMD
KCID 280958Z 2810/2906 13009KT 3SM BR OVC005
      TEMPO 2810/2814 5SM BR OVC008
     FM281400 14014G21KT 6SM BR OVC015
     FM281800 14015G23KT P6SM BKN030
     FM290100 13012KT 5SM BR OVC018=



000
FTUS43 KDVN 280700 AAA
TAFCID
TAF AMD
KCID 280713Z 2807/2906 13009KT 6SM BR OVC012
      TEMPO 2807/2811 5SM BR OVC008
     FM281400 14014G21KT 6SM BR OVC015
     FM281800 14015G23KT P6SM BKN030
     FM290100 13012KT 5SM BR OVC018=



000
FTUS43 KDVN 280700 AAA
TAFBRL
TAF AMD
KBRL 280712Z 2807/2906 13009KT 5SM BR OVC008
     FM281400 15013G20KT P6SM OVC015
     FM281800 16017G25KT P6SM BKN030
     FM290100 15013KT 6SM BR OVC018=



000
FTUS43 KDVN 280500
TAFMLI
TAF
KMLI 280539Z 2806/2906 13007KT P6SM OVC012
     FM281400 15012KT P6SM OVC015
     FM281700 15015G23KT P6SM BKN030
     FM290100 14012KT 5SM BR OVC018=



000
FTUS43 KDVN 280500
TAFBRL
TAF
KBRL 280539Z 2806/2906 13009KT P6SM OVC010
     FM281500 15013G20KT P6SM OVC015
     FM281800 16017G25KT P6SM BKN030
     FM290100 15013KT 6SM BR OVC018=



000
FTUS43 KDVN 280500
TAFCID
TAF
KCID 280539Z 2806/2906 13009KT 6SM BR OVC012
      TEMPO 2808/2812 5SM BR OVC008
     FM281400 14014G21KT 6SM BR OVC015
     FM281800 14015G23KT P6SM BKN030
     FM290100 13012KT 5SM BR OVC018=



000
FTUS43 KDVN 280500
TAFDBQ
TAF
KDBQ 280539Z 2806/2906 16008KT 5SM BR OVC009
     FM281100 16012KT 6SM BR OVC010
     FM281400 16014G21KT P6SM OVC015
     FM281800 16017G25KT P6SM BKN030
     FM290100 15012KT 5SM BR OVC018=



000
FTUS43 KDVN 280400 AAB
TAFDBQ
TAF AMD
KDBQ 280442Z 2805/2824 16007KT 5SM BR OVC009
     FM280900 15009KT 6SM BR OVC012
     FM281400 15013G20KT P6SM BKN025
     FM281800 15017G25KT P6SM BKN150=



000
FTUS43 KDVN 280300 AAA
TAFDBQ
TAF AMD
KDBQ 280325Z 2803/2824 16006KT 6SM BR OVC015
      TEMPO 2806/2810 5SM BR
     FM281400 15013G20KT P6SM BKN025
     FM281800 15017G25KT P6SM BKN150=



000
FTUS43 KDVN 272300
TAFMLI
TAF
KMLI 272320Z 2800/2824 10004KT P6SM OVC015
     FM281300 14012G18KT P6SM BKN025
     FM281800 15015G23KT P6SM BKN150=



000
FTUS43 KDVN 272300
TAFDBQ
TAF
KDBQ 272320Z 2800/2824 12004KT P6SM OVC015
     FM280700 15008KT P6SM OVC015
     FM281400 15013G20KT P6SM BKN025
     FM281800 15017G25KT P6SM BKN150=



000
FTUS43 KDVN 272300
TAFCID
TAF
KCID 272320Z 2800/2824 13005KT P6SM OVC015
     FM280700 13007KT 5SM BR OVC015
     FM281400 13013G20KT 6SM BR BKN030
     FM281800 14015G23KT P6SM BKN150=



000
FTUS43 KDVN 272300
TAFBRL
TAF
KBRL 272320Z 2800/2824 09005KT P6SM OVC015
     FM280900 14008KT P6SM BKN025
     FM281400 15013G21KT P6SM SCT030
     FM281800 15017G25KT P6SM BKN150=



000
FTUS43 KDVN 271700
TAFBRL
TAF
KBRL 271739Z 2718/2818 04010KT P6SM OVC019
     FM280000 09006KT P6SM BKN025
     FM280500 14008KT P6SM SCT025
     FM281500 15012G20KT P6SM SCT030 BKN250=



000
FTUS43 KDVN 271700
TAFDBQ
TAF
KDBQ 271739Z 2718/2818 04007KT P6SM OVC017
     FM280000 09005KT P6SM OVC015
     FM280500 15007KT P6SM OVC012
     FM281500 15012G20KT P6SM SCT020 BKN250=



000
FTUS43 KDVN 271700
TAFCID
TAF
KCID 271739Z 2718/2818 05008KT P6SM OVC018
     FM280000 09006KT P6SM OVC018
     FM280600 13007KT 5SM BR OVC015
     FM281300 13012G20KT P6SM SCT020 BKN250=



000
FTUS43 KDVN 271700
TAFMLI
TAF
KMLI 271739Z 2718/2818 02009KT P6SM OVC016
     FM280000 09005KT P6SM OVC015
     FM280600 14006KT P6SM OVC020
     FM281300 15012G18KT P6SM SCT025 BKN250=



000
FTUS43 KDVN 271500 AAA
TAFBRL
TAF AMD
KBRL 271530Z 2716/2812 02008KT P6SM BKN025
     FM271700 02007KT P6SM OVC015
     FM272200 05006KT P6SM SCT030 SCT250
     FM280000 14007KT P6SM SCT250=



000
FTUS43 KDVN 271500 AAA
TAFDBQ
TAF AMD
KDBQ 271528Z 2715/2812 05009KT P6SM OVC011
     FM272200 05006KT P6SM OVC020
     FM280200 14007KT P6SM BKN040=



000
FTUS43 KDVN 271500 AAB
TAFMLI
TAF AMD
KMLI 271528Z 2715/2812 02007KT P6SM OVC015
     FM272200 05006KT P6SM OVC025
     FM280200 14007KT P6SM SCT250=



000
FTUS43 KDVN 271500 AAA
TAFCID
TAF AMD
KCID 271526Z 2715/2812 01011KT P6SM OVC015
     FM272200 05006KT P6SM BKN025
     FM280000 14007KT P6SM SCT030 SCT120=



000
FTUS43 KDVN 271300 AAA
TAFMLI
TAF AMD
KMLI 271315Z 2713/2812 35008KT P6SM OVC035
      TEMPO 2713/2716 OVC015
     FM271600 01006KT P6SM SCT015 BKN030
     FM272000 05006KT P6SM SCT030 SCT250
     FM280000 14007KT P6SM SCT250=



000
FTUS43 KDVN 271100
TAFDBQ
TAF
KDBQ 271120Z 2712/2812 01013KT P6SM BKN012 OVC035
      TEMPO 2712/2716 OVC006
     FM271600 04008KT P6SM SCT010 BKN018
     FM272000 05006KT P6SM BKN035
     FM280000 14007KT P6SM BKN040=



000
FTUS43 KDVN 271100
TAFCID
TAF
KCID 271120Z 2712/2812 32009KT P6SM SCT012 BKN035
      TEMPO 2712/2716 OVC025
     FM272000 05006KT P6SM SCT030 SCT250
     FM280000 14007KT P6SM SCT030 SCT120=



000
FTUS43 KDVN 271100
TAFMLI
TAF
KMLI 271120Z 2712/2812 35008KT P6SM OVC035
     FM271500 01006KT P6SM SCT015 BKN030
     FM272000 05006KT P6SM SCT030 SCT250
     FM280000 14007KT P6SM SCT250=



000
FTUS43 KDVN 271100
TAFBRL
TAF
KBRL 271120Z 2712/2812 32009KT P6SM SCT025 SCT050
      TEMPO 2712/2716 OVC025
     FM271600 02007KT P6SM SCT015 BKN035
     FM272000 05006KT P6SM SCT030 SCT250
     FM280000 14007KT P6SM SCT250=



000
FTUS43 KDVN 271000 AAB
TAFDBQ
TAF AMD
KDBQ 271037Z 2711/2806 01010KT 6SM BR OVC012
      TEMPO 2711/2715 OVC006
     FM271500 04008KT P6SM SCT010 BKN015
     FM272000 05006KT P6SM SCT030 SCT250
     FM280000 14007KT P6SM SCT250=



000
FTUS43 KDVN 270900 AAA
TAFBRL
TAF AMD
KBRL 270904Z 2709/2806 33009KT P6SM BKN018
     FM271200 36007KT P6SM SCT015 BKN025
     FM272000 05006KT P6SM SCT030 SCT250
     FM280000 14007KT P6SM SCT250=



000
FTUS43 KDVN 270800 AAA
TAFDBQ
TAF AMD
KDBQ 270821Z 2708/2806 34010KT 6SM BR OVC035
     FM271400 04008KT P6SM SCT015 BKN025
     FM272000 05006KT P6SM SCT030 SCT250
     FM280000 14007KT P6SM SCT250=



000
FTUS43 KDVN 270800 AAA
TAFMLI
TAF AMD
KMLI 270820Z 2708/2806 VRB03KT 6SM BR SCT025 OVC035
     FM271400 01006KT P6SM SCT015 BKN025
     FM272000 05006KT P6SM SCT030 SCT250
     FM280000 14007KT P6SM SCT250=



000
FTUS43 KDVN 270500
TAFMLI
TAF
KMLI 270540Z 2706/2806 VRB03KT 5SM BR SCT025 OVC035
     FM271000 01006KT P6SM SCT015 BKN025
     FM272000 05006KT P6SM SCT030 SCT250
     FM280000 14007KT P6SM SCT250=



000
FTUS43 KDVN 270500
TAFBRL
TAF
KBRL 270540Z 2706/2806 32009KT P6SM SCT025 BKN050
     FM271400 36007KT P6SM SCT015 BKN025
     FM272000 05006KT P6SM SCT030 SCT250
     FM280000 14007KT P6SM SCT250=



000
FTUS43 KDVN 270500
TAFDBQ
TAF
KDBQ 270540Z 2706/2806 VRB03KT 4SM BR OVC025
     FM270900 01004KT 6SM BR OVC018
     FM271400 04008KT P6SM SCT015 BKN025
     FM272000 05006KT P6SM SCT030 SCT250
     FM280000 14007KT P6SM SCT250=



000
FTUS43 KDVN 270500
TAFCID
TAF
KCID 270540Z 2706/2806 32009KT P6SM SCT025 BKN050
     FM271200 35007KT P6SM SCT015 BKN025
     FM272000 05006KT P6SM SCT030 SCT250
     FM280000 14007KT P6SM SCT250=



000
FTUS43 KDVN 270200 AAB
TAFDBQ
TAF AMD
KDBQ 270259Z 2703/2724 VRB03KT 4SM BR OVC015
     FM270600 30006KT 5SM BR OVC022
     FM271200 36008KT P6SM SCT015 BKN025
     FM271900 06008KT P6SM BKN030=



000
FTUS43 KDVN 270200 AAA
TAFBRL
TAF AMD
KBRL 270201Z 2702/2724 30006KT P6SM SCT025 BKN050
     FM271200 35008KT P6SM SCT015 BKN025
     FM271900 04008KT P6SM BKN030=



000
FTUS43 KDVN 262300 AAA
TAFDBQ
TAF AMD
KDBQ 262348Z 2700/2724 17005KT 2SM BR BKN003 OVC018
     FM270400 31006KT 4SM BR OVC015
     FM271200 36008KT P6SM SCT015 BKN025
     FM271900 06008KT P6SM BKN030=



000
FTUS43 KDVN 262300 RRA
TAFDBQ
TAF
KDBQ 262347Z 2700/2724 17005KT 2SM BR SCT003 OVC018
     FM270400 31006KT 4SM BR OVC015
     FM271200 36008KT P6SM SCT015 BKN025
     FM271900 06008KT P6SM BKN030=



000
FTUS43 KDVN 262300 RRA
TAFBRL
TAF
KBRL 262347Z 2700/2724 VRB03KT 4SM BR SCT025 BKN035
     FM270300 31006KT 6SM BR SCT025 BKN035
     FM271200 35008KT P6SM SCT015 BKN025
     FM271900 04008KT P6SM BKN030=



000
FTUS43 KDVN 262300 RRA
TAFCID
TAF
KCID 262347Z 2700/2724 31009KT P6SM SCT025 BKN035
     FM271200 35008KT P6SM SCT015 BKN025
     FM271900 05008KT P6SM BKN030=



000
FTUS43 KDVN 262300 RRA
TAFMLI
TAF
KMLI 262347Z 2700/2724 25004KT 6SM BR OVC025
     FM270400 31006KT 4SM BR SCT025 BKN035
     FM271200 35008KT P6SM SCT015 BKN025
     FM271900 04008KT P6SM BKN030=



000
FTUS43 KDVN 262300 AAD
TAFMLI
TAF AMD
KMLI 262304Z 2623/2718 22005KT 5SM BR OVC020
     FM270300 31006KT 4SM BR BKN025
     FM271200 03007KT P6SM OVC015=



000
FTUS43 KDVN 262200 AAB
TAFBRL
TAF AMD
KBRL 262238Z 2623/2718 20005KT P6SM OVC025
     FM270100 30008KT P6SM BKN025
     FM271300 35005KT P6SM OVC020=



000
FTUS43 KDVN 262200 AAC
TAFMLI
TAF AMD
KMLI 262237Z 2623/2718 22005KT 2SM BR OVC015
     FM270200 31006KT 5SM BR OVC020
     FM271200 03007KT P6SM OVC015=



000
FTUS43 KDVN 262200 AAB
TAFCID
TAF AMD
KCID 262236Z 2623/2718 24005KT P6SM SCT018 BKN150
     FM270000 32010KT P6SM BKN035
     FM270600 35009KT P6SM BKN025=



000
FTUS43 KDVN 262100 AAB
TAFMLI
TAF AMD
KMLI 262145Z 2622/2718 20005KT 6SM BR OVC010
     FM270100 31005KT 5SM BR OVC012
     FM271200 03007KT P6SM OVC015=



000
FTUS43 KDVN 262100 CCA
TAFDBQ
TAF COR
KDBQ 262103Z 2621/2718 18009KT 1 1/2SM BR OVC003
     FM270000 30007KT 2SM BR OVC005
     FM271200 03008KT 3SM BR OVC007=



000
FTUS43 KDVN 262100 AAC
TAFDBQ
TAF AMD
KDBQ 262101Z 2621/2718 18009KT 1 1/2SM BR OVC003
     FM271200 03008KT 3SM BR OVC006=



000
FTUS43 KDVN 261900 AAA
TAFMLI
TAF AMD
KMLI 261935Z 2620/2718 22007KT P6SM BKN011 OVC023
     FM270100 31005KT P6SM OVC020
     FM271200 03007KT P6SM OVC010=



000
FTUS43 KDVN 261900 AAA
TAFBRL
TAF AMD
KBRL 261935Z 2620/2718 20007KT P6SM BKN015 OVC030
     FM262200 30008KT P6SM OVC015
     FM271300 35005KT P6SM OVC020=



000
FTUS43 KDVN 261900 AAB
TAFDBQ
TAF AMD
KDBQ 261916Z 2619/2718 19011KT 1 1/2SM BR OVC005
     FM270000 30007KT P6SM OVC010
     FM271200 03008KT P6SM OVC008=



000
FTUS43 KDVN 261900 AAA
TAFDBQ
TAF AMD
KDBQ 261903Z 2619/2718 19011KT 3SM BR OVC006
     FM270000 30007KT P6SM OVC015
     FM271200 03008KT P6SM OVC008=



000
FTUS43 KDVN 261800 AAA
TAFCID
TAF AMD
KCID 261856Z 2619/2718 19006KT P6SM OVC020
     FM262000 32010KT P6SM OVC015
     FM271500 35009KT P6SM OVC012=



000
FTUS43 KDVN 261700 RRA
TAFBRL
TAF
KBRL 261748Z 2618/2718 22007KT P6SM OVC026
     FM262200 30008KT P6SM OVC025
     FM271300 35005KT P6SM OVC020=



000
FTUS43 KDVN 261700 RRA
TAFCID
TAF
KCID 261748Z 2618/2718 17012KT P6SM OVC008
     FM262000 32010KT P6SM OVC015
     FM271500 35009KT P6SM OVC012=



000
FTUS43 KDVN 261700 RRA
TAFMLI
TAF
KMLI 261748Z 2618/2718 22008KT P6SM OVC025
     FM270100 31005KT P6SM OVC020
     FM271200 03007KT P6SM OVC010=



000
FTUS43 KDVN 261700 RRA
TAFDBQ
TAF
KDBQ 261748Z 2618/2718 18014KT P6SM BKN007 OVC020
     FM270000 30007KT P6SM OVC015
     FM271200 03008KT P6SM OVC008=



000
FTUS43 KDVN 261700 AAB
TAFBRL
TAF AMD
KBRL 261701Z 2617/2712 18007KT P6SM OVC026
     FM262000 23012KT P6SM BKN025
     FM270000 28005KT P6SM OVC020=



000
FTUS43 KDVN 261700 AAB
TAFDBQ
TAF AMD
KDBQ 261700Z 2617/2712 17015KT P6SM BKN015 OVC024
      TEMPO 2617/2621 BKN008
     FM270000 30007KT P6SM OVC020=



000
FTUS43 KDVN 261600 AAA
TAFCID
TAF AMD
KCID 261659Z 2617/2712 17012KT P6SM OVC008
     FM262000 32010KT P6SM OVC020=



000
FTUS43 KDVN 261500 AAA
TAFDBQ
TAF AMD
KDBQ 261508Z 2615/2712 19011KT 1/2SM -SN FZFG VV010
      TEMPO 2615/2617 3SM -SN BR SCT006 OVC012
     FM261700 23011KT P6SM BKN025
     FM270000 30007KT P6SM OVC020=



000
FTUS43 KDVN 261400 AAA
TAFBRL
TAF AMD
KBRL 261447Z 2615/2712 19008KT 1SM -SN BR OVC020
      TEMPO 2615/2618 3SM -SN BR SCT008 OVC012
     FM261800 23012KT P6SM BKN025
     FM270000 28005KT P6SM OVC020=



000
FTUS43 KDVN 261400 AAA
TAFMLI
TAF AMD
KMLI 261429Z 2614/2712 17005KT 1SM -SN OVC025
      TEMPO 2615/2618 1/2SM SN SCT008 OVC012
     FM261800 22008KT P6SM BKN025
     FM270000 28005KT P6SM OVC020=



000
FTUS43 KDVN 261100
TAFCID
TAF
KCID 261120Z 2612/2712 17005KT P6SM OVC020
      TEMPO 2613/2616 2SM -SN BR SCT008 OVC012
     FM261600 24012KT P6SM BKN025
     FM262000 32010KT P6SM OVC020=



000
FTUS43 KDVN 261100
TAFMLI
TAF
KMLI 261120Z 2612/2712 VRB03KT P6SM BKN025
     FM261400 17005KT P6SM OVC020
      TEMPO 2615/2618 1SM -SN BR SCT008 OVC012
     FM261800 22008KT P6SM BKN025
     FM270000 28005KT P6SM OVC020=



000
FTUS43 KDVN 261100
TAFDBQ
TAF
KDBQ 261120Z 2612/2712 17006KT P6SM OVC020
      TEMPO 2613/2616 1SM -SN BR SCT006 OVC012
     FM261700 23011KT P6SM BKN025
     FM270000 30007KT P6SM OVC020=



000
FTUS43 KDVN 261100
TAFBRL
TAF
KBRL 261120Z 2612/2712 20005KT P6SM BKN020
     FM261300 16005KT P6SM OVC020
      TEMPO 2615/2618 2SM -SN BR SCT008 OVC012
     FM261800 23012KT P6SM BKN025
     FM270000 28005KT P6SM OVC020=



000
FTUS43 KDVN 261100 AAA
TAFBRL
TAF AMD
KBRL 261102Z 2611/2706 20005KT P6SM BKN020
     FM261300 16005KT P6SM OVC018
      TEMPO 2614/2617 2SM -SN BR SCT008 OVC012
     FM261700 23012KT P6SM BKN025
     FM270000 28005KT P6SM OVC020=



000
FTUS43 KDVN 261100 AAA
TAFDBQ
TAF AMD
KDBQ 261101Z 2611/2706 17006KT P6SM OVC020
     FM261200 18007KT P6SM OVC018
      TEMPO 2613/2616 1SM -SN BR SCT006 OVC012
     FM261700 23011KT P6SM BKN025
     FM270000 30007KT P6SM OVC020=



000
FTUS43 KDVN 260900 AAB
TAFCID
TAF AMD
KCID 260929Z 2609/2706 17005KT P6SM OVC020
     FM261200 19005KT P6SM OVC018
      TEMPO 2613/2615 2SM -SN BR SCT008 OVC012
     FM261600 24012KT P6SM BKN025
     FM262000 30010KT P6SM OVC020=



    US Dept of Commerce
    National Oceanic and Atmospheric Administration
    National Weather Service
    1325 East West Highway
    Silver Spring, MD 20910
    Page Author: NWS Internet Services Team
Disclaimer
Information Quality
Credits
Glossary
Privacy Policy
Freedom of Information Act (FOIA)
About Us
Career Opportunities